Maersk Raleigh — MBFI9 — position and weather

sailwx.info

Track history (hours):
 
Tides and Currents Weather Stations Pressure Air Temp Water Temp Dewpoint Dewpoint Depression Visibility Wind Speed Wind Dir Waves Ship Positions

Maersk Raleigh

Last reported at 2018-Jan-18 16:44 UTC. Time now 2018-Jan-21 14:46 UTC.
Position N 27°41' W 015°16'.

Length 172 m; draft 8.3 m.

Type: Ship. MMSI: 232008765.

Date/timePositionNaut miles runAvg speedWind from/ knotsBaromVisibWave heightAir tempDewpointWater temp
2018-Jan-18 16:44N 27°41' W 015°16'413.3
2018-Jan-18 16:24N 27°45' W 015°15'614.2
2018-Jan-18 16:01N 27°51' W 015°15'714.4
2018-Jan-18 15:30N 27°58' W 015°15'713.6
2018-Jan-18 15:00N 28°04' W 015°19'611.6
2018-Jan-18 14:30N 28°07' W 015°24'0 0.6
2018-Jan-18 13:54N 28°07' W 015°25'0 0.1
2018-Jan-18 13:24N 28°07' W 015°25'0 0.1
2018-Jan-18 12:54N 28°07' W 015°25'0 0.1
2018-Jan-18 12:24N 28°07' W 015°25'0 0.0
2018-Jan-18 11:54N 28°07' W 015°25'0 0.1
2018-Jan-18 11:27N 28°07' W 015°25'0 0.1
2018-Jan-18 10:57N 28°07' W 015°25'0 0.1
2018-Jan-18 10:27N 28°07' W 015°25'0 0.0
2018-Jan-18 09:57N 28°07' W 015°25'0 0.1
2018-Jan-18 09:27N 28°07' W 015°25'0 0.0
2018-Jan-18 08:57N 28°07' W 015°25'0 0.2
2018-Jan-18 08:24N 28°07' W 015°25'0 0.1
2018-Jan-18 07:57N 28°07' W 015°25'0 0.0
2018-Jan-18 07:27N 28°07' W 015°25'0 0.0
2018-Jan-18 06:57N 28°07' W 015°25'0 0.0
2018-Jan-18 06:27N 28°07' W 015°25'0 0.1
2018-Jan-18 06:00N 28°07' W 015°25'1 2.9
2018-Jan-18 05:30N 28°07' W 015°23'3 5.8
2018-Jan-18 05:00N 28°09' W 015°21'3 5.1
2018-Jan-18 04:30N 28°12' W 015°19'4 8.7
2018-Jan-18 04:00N 28°15' W 015°16'612.2
2018-Jan-18 03:30N 28°20' W 015°13'4 7.1
2018-Jan-18 03:00N 28°23' W 015°10'611.2
2018-Jan-18 02:30N 28°17' W 015°12'611.4
2018-Jan-18 02:00N 28°12' W 015°15'611.4
2018-Jan-18 01:30N 28°07' W 015°16'611.2
2018-Jan-18 00:59N 28°01' W 015°16'1111.3
2018-Jan-18 00:00N 27°50' W 015°14'011.1
2018-Jan-17 23:57N 27°50' W 015°14'  
2018-Jan-10 23:06N 36°31' E 014°20'213.0
2018-Jan-10 22:58N 36°30' E 014°22'613.0
2018-Jan-10 22:29N 36°28' E 014°29'612.9
2018-Jan-10 22:00N 36°26' E 014°37'41214.2
2018-Jan-09 16:53N 34°54' E 022°52'614.8
2018-Jan-09 16:28N 34°53' E 022°59'715.0
2018-Jan-09 16:00N 34°51' E 023°07'714.9
2018-Jan-09 15:30N 34°50' E 023°16'2415.1
2018-Jan-09 13:53N 34°44' E 023°45'2015.0
2018-Jan-09 12:35N 34°41' E 024°08'414.9
2018-Jan-09 12:18N 34°40' E 024°13'3714.3
2018-Jan-09 09:44N 34°39' E 024°58'413.9
2018-Jan-09 09:27N 34°39' E 025°03'614.0
2018-Jan-09 09:00N 34°39' E 025°10'714.1
2018-Jan-09 08:30N 34°39' E 025°19'2614.4
2018-Jan-09 06:43N 34°38' E 025°50'314.9
2018-Jan-09 06:29N 34°38' E 025°54'914.9
2018-Jan-09 05:54N 34°38' E 026°05'714.9
2018-Jan-09 05:26N 34°38' E 026°13'615.1
2018-Jan-09 05:00N 34°38' E 026°21'814.9
2018-Jan-09 04:29N 34°38' E 026°31'714.9
2018-Jan-09 04:00N 34°37' E 026°39'1214.6
2018-Jan-09 03:12N 34°37' E 026°54'914.5
2018-Jan-09 02:35N 34°37' E 027°05'5214.3
2018-Jan-08 22:57N 34°36' E 028°08'714.5
2018-Jan-08 22:30N 34°36' E 028°16'  
Track history (hours):
 
Tides and Currents Weather Stations Pressure Air Temp Water Temp Dewpoint Dewpoint Depression Visibility Wind Speed Wind Dir Waves Ship Positions

Maersk Raleigh

Last reported at 2018-Jan-18 16:44 UTC. Time now 2018-Jan-21 14:46 UTC.
Position N 27°41' W 015°16'.

Length 172 m; draft 8.3 m.

Type: Ship. MMSI: 232008765.

Date/timePositionNaut miles runAvg speedWind from/ knotsBaromVisibWave heightAir tempDewpointWater temp
2018-Jan-18 16:44N 27°41' W 015°16'413.3
2018-Jan-18 16:24N 27°45' W 015°15'614.2
2018-Jan-18 16:01N 27°51' W 015°15'714.4
2018-Jan-18 15:30N 27°58' W 015°15'713.6
2018-Jan-18 15:00N 28°04' W 015°19'611.6
2018-Jan-18 14:30N 28°07' W 015°24'0 0.6
2018-Jan-18 13:54N 28°07' W 015°25'0 0.1
2018-Jan-18 13:24N 28°07' W 015°25'0 0.1
2018-Jan-18 12:54N 28°07' W 015°25'0 0.1
2018-Jan-18 12:24N 28°07' W 015°25'0 0.0
2018-Jan-18 11:54N 28°07' W 015°25'0 0.1
2018-Jan-18 11:27N 28°07' W 015°25'0 0.1
2018-Jan-18 10:57N 28°07' W 015°25'0 0.1
2018-Jan-18 10:27N 28°07' W 015°25'0 0.0
2018-Jan-18 09:57N 28°07' W 015°25'0 0.1
2018-Jan-18 09:27N 28°07' W 015°25'0 0.0
2018-Jan-18 08:57N 28°07' W 015°25'0 0.2
2018-Jan-18 08:24N 28°07' W 015°25'0 0.1
2018-Jan-18 07:57N 28°07' W 015°25'0 0.0
2018-Jan-18 07:27N 28°07' W 015°25'0 0.0
2018-Jan-18 06:57N 28°07' W 015°25'0 0.0
2018-Jan-18 06:27N 28°07' W 015°25'0 0.1
2018-Jan-18 06:00N 28°07' W 015°25'1 2.9
2018-Jan-18 05:30N 28°07' W 015°23'3 5.8
2018-Jan-18 05:00N 28°09' W 015°21'3 5.1
2018-Jan-18 04:30N 28°12' W 015°19'4 8.7
2018-Jan-18 04:00N 28°15' W 015°16'612.2
2018-Jan-18 03:30N 28°20' W 015°13'4 7.1
2018-Jan-18 03:00N 28°23' W 015°10'611.2
2018-Jan-18 02:30N 28°17' W 015°12'611.4
2018-Jan-18 02:00N 28°12' W 015°15'611.4
2018-Jan-18 01:30N 28°07' W 015°16'611.2
2018-Jan-18 00:59N 28°01' W 015°16'1111.3
2018-Jan-18 00:00N 27°50' W 015°14'011.1
2018-Jan-17 23:57N 27°50' W 015°14'  
2018-Jan-10 23:06N 36°31' E 014°20'213.0
2018-Jan-10 22:58N 36°30' E 014°22'613.0
2018-Jan-10 22:29N 36°28' E 014°29'612.9
2018-Jan-10 22:00N 36°26' E 014°37'41214.2
2018-Jan-09 16:53N 34°54' E 022°52'614.8
2018-Jan-09 16:28N 34°53' E 022°59'715.0
2018-Jan-09 16:00N 34°51' E 023°07'714.9
2018-Jan-09 15:30N 34°50' E 023°16'2415.1
2018-Jan-09 13:53N 34°44' E 023°45'2015.0
2018-Jan-09 12:35N 34°41' E 024°08'414.9
2018-Jan-09 12:18N 34°40' E 024°13'3714.3
2018-Jan-09 09:44N 34°39' E 024°58'413.9
2018-Jan-09 09:27N 34°39' E 025°03'614.0
2018-Jan-09 09:00N 34°39' E 025°10'714.1
2018-Jan-09 08:30N 34°39' E 025°19'2614.4
2018-Jan-09 06:43N 34°38' E 025°50'314.9
2018-Jan-09 06:29N 34°38' E 025°54'914.9
2018-Jan-09 05:54N 34°38' E 026°05'714.9
2018-Jan-09 05:26N 34°38' E 026°13'615.1
2018-Jan-09 05:00N 34°38' E 026°21'814.9
2018-Jan-09 04:29N 34°38' E 026°31'714.9
2018-Jan-09 04:00N 34°37' E 026°39'1214.6
2018-Jan-09 03:12N 34°37' E 026°54'914.5
2018-Jan-09 02:35N 34°37' E 027°05'5214.3
2018-Jan-08 22:57N 34°36' E 028°08'714.5
2018-Jan-08 22:30N 34°36' E 028°16'  

Dump ship's entire track history